Time;durP1;ratioP1;P1;durP2;ratioP2;P2;SDS_P1;SDS_P2;PMS_P1;PMS_P2;Temp;Humidity;BMP_temperature;BMP_pressure;BME280_temperature;BME280_humidity;BME280_pressure;Samples;Min_cycle;Max_cycle;Signal;HPM_P1;HPM_P2
2024/01/15 05:47:27;;;;;;;7.88;4.35;;;-1.00;99.90;;;;;;5007924;28;20192;-78
2024/01/15 05:50:18;;;;;;;4.00;1.48;;;-1.00;99.90;;;;;;5001899;28;20182;-78
2024/01/15 05:52:43;;;;;;;3.97;3.42;;;-1.00;99.90;;;;;;4989039;28;20189;-80
2024/01/15 05:55:09;;;;;;;3.40;2.20;;;-0.90;99.90;;;;;;4959363;28;20239;-81
2024/01/15 05:57:36;;;;;;;4.22;3.92;;;-0.90;99.90;;;;;;4979139;28;20933;-80
2024/01/15 06:00:02;;;;;;;3.42;3.13;;;-0.90;99.90;;;;;;5004202;28;20186;-84
2024/01/15 06:02:28;;;;;;;5.32;2.13;;;-0.90;99.90;;;;;;4992916;28;20221;-84
2024/01/15 06:04:53;;;;;;;4.43;3.00;;;-0.80;99.90;;;;;;5007008;28;20295;-81
2024/01/15 06:07:19;;;;;;;5.30;1.70;;;-0.80;99.90;;;;;;5014199;28;20280;-84
2024/01/15 06:09:44;;;;;;;6.77;3.63;;;-0.90;99.90;;;;;;4998648;28;20214;-79
2024/01/15 06:12:10;;;;;;;2.73;2.20;;;-0.80;99.90;;;;;;5023826;28;20236;-81
2024/01/15 06:14:36;;;;;;;4.20;2.93;;;-0.80;99.90;;;;;;4998187;28;20209;-79
2024/01/15 06:17:01;;;;;;;3.13;2.63;;;-0.80;99.90;;;;;;4998920;28;20208;-79
2024/01/15 06:19:27;;;;;;;12.20;5.20;;;-0.80;99.90;;;;;;5027806;28;20277;-82
2024/01/15 06:21:52;;;;;;;7.47;2.13;;;-0.90;99.90;;;;;;5017184;28;21465;-82
2024/01/15 06:24:20;;;;;;;22.13;4.77;;;-0.80;99.90;;;;;;5012182;28;20194;-79
2024/01/15 06:26:47;;;;;;;10.68;3.47;;;-0.80;99.90;;;;;;5009851;28;20188;-81
2024/01/15 06:29:12;;;;;;;4.50;2.08;;;-0.70;99.90;;;;;;4997029;28;20390;-79
2024/01/15 06:31:38;;;;;;;5.00;2.63;;;-0.70;99.90;;;;;;4987156;28;20208;-83
2024/01/15 06:34:03;;;;;;;4.33;2.33;;;-0.70;99.90;;;;;;5006646;28;21086;-84
2024/01/15 06:36:29;;;;;;;2.30;2.10;;;-0.80;99.90;;;;;;5003066;28;20675;-82
2024/01/15 06:38:54;;;;;;;3.13;1.40;;;-0.80;99.90;;;;;;5010143;28;20197;-81
2024/01/15 06:41:20;;;;;;;2.90;2.23;;;-0.80;99.90;;;;;;5009785;28;20268;-78
2024/01/15 06:43:45;;;;;;;3.77;2.27;;;-0.80;99.90;;;;;;5011597;28;20226;-83
2024/01/15 06:46:11;;;;;;;8.33;5.40;;;-0.80;99.90;;;;;;5010364;28;20209;-81
2024/01/15 06:48:36;;;;;;;4.23;3.23;;;-0.80;99.90;;;;;;5016890;28;20730;-82
2024/01/15 06:51:02;;;;;;;2.50;2.40;;;-0.80;99.90;;;;;;4984399;28;20208;-82
2024/01/15 06:53:28;;;;;;;3.07;2.53;;;-0.80;99.90;;;;;;4964360;28;20457;-78
2024/01/15 06:55:53;;;;;;;2.20;2.03;;;-0.80;99.90;;;;;;4961068;28;20178;-80
2024/01/15 06:58:19;;;;;;;7.40;2.60;;;-0.80;99.90;;;;;;4974740;28;20807;-80
2024/01/15 07:00:45;;;;;;;8.75;3.83;;;-0.80;99.90;;;;;;4967040;28;20434;-80
2024/01/15 07:03:11;;;;;;;7.32;3.90;;;-0.80;99.90;;;;;;4964551;28;20187;-81
2024/01/15 07:05:37;;;;;;;7.50;2.70;;;-0.70;99.90;;;;;;4954690;28;21275;-80
2024/01/15 07:08:03;;;;;;;4.78;1.70;;;-0.70;99.90;;;;;;4975517;28;20194;-79
2024/01/15 07:10:29;;;;;;;4.17;1.10;;;-0.70;99.90;;;;;;4977235;28;21657;-80
2024/01/15 07:12:54;;;;;;;7.57;2.83;;;-0.60;99.90;;;;;;4980298;28;20514;-82
2024/01/15 07:15:20;;;;;;;2.30;1.67;;;-0.70;99.90;;;;;;4980992;28;20328;-80
2024/01/15 07:17:45;;;;;;;2.70;1.20;;;-0.70;99.90;;;;;;4977126;28;20198;-81
2024/01/15 07:20:11;;;;;;;8.50;2.40;;;-0.60;99.90;;;;;;4976051;28;20209;-82
2024/01/15 07:22:37;;;;;;;3.30;1.63;;;-0.60;99.90;;;;;;4976268;28;20281;-81
2024/01/15 07:25:04;;;;;;;8.60;3.80;;;-0.60;99.90;;;;;;4975797;28;22591;-78
2024/01/15 07:27:31;;;;;;;7.30;3.97;;;-0.60;99.90;;;;;;4980236;28;21570;-81
2024/01/15 07:29:56;;;;;;;2.88;1.25;;;-0.60;99.90;;;;;;4978545;28;20182;-80
2024/01/15 07:32:22;;;;;;;2.20;1.90;;;-0.60;99.90;;;;;;4958875;28;20227;-79
2024/01/15 07:34:48;;;;;;;2.53;1.50;;;-0.60;99.90;;;;;;4961171;28;20759;-78
2024/01/15 07:37:13;;;;;;;1.03;1.03;;;-0.60;99.90;;;;;;4967549;28;20307;-83
2024/01/15 07:39:39;;;;;;;2.70;1.87;;;-0.60;99.90;;;;;;4972176;28;20534;-81
2024/01/15 07:42:05;;;;;;;1.90;1.23;;;-0.60;99.90;;;;;;4963043;28;21493;-83
2024/01/15 07:44:30;;;;;;;3.33;1.77;;;-0.50;99.90;;;;;;4969776;28;20494;-80
2024/01/15 07:46:56;;;;;;;9.93;2.50;;;-0.50;99.90;;;;;;4976977;28;20464;-79
2024/01/15 07:49:23;;;;;;;2.57;2.20;;;-0.40;99.90;;;;;;4996378;28;20506;-78
2024/01/15 07:51:49;;;;;;;3.30;2.15;;;-0.90;99.90;;;;;;4972581;28;20627;-82
2024/01/15 07:54:14;;;;;;;2.87;1.07;;;-0.40;99.90;;;;;;4987381;28;20321;-79
2024/01/15 07:56:59;;;;;;;4.60;2.63;;;-0.40;99.90;;;;;;5001695;28;20410;-82
2024/01/15 07:59:26;;;;;;;2.03;0.95;;;-0.40;99.90;;;;;;5013809;28;20182;-83
2024/01/15 08:01:52;;;;;;;4.88;2.67;;;-0.40;99.90;;;;;;5009400;28;20209;-82
2024/01/15 08:04:18;;;;;;;4.75;2.10;;;-0.30;99.90;;;;;;5003368;28;21124;-82
2024/01/15 08:06:43;;;;;;;3.90;2.10;;;-0.30;99.90;;;;;;5006606;28;20344;-82
2024/01/15 08:09:09;;;;;;;4.47;3.00;;;-0.30;99.90;;;;;;4985461;28;20201;-83
2024/01/15 08:11:35;;;;;;;1.40;1.00;;;-0.30;99.90;;;;;;4989851;28;20213;-83
2024/01/15 08:14:01;;;;;;;2.75;1.35;;;-0.30;99.90;;;;;;4991258;28;20263;-80
2024/01/15 08:16:27;;;;;;;1.33;1.03;;;-0.20;99.90;;;;;;4989370;28;21472;-78
2024/01/15 08:18:53;;;;;;;2.92;2.53;;;-0.20;99.90;;;;;;4988341;28;20830;-82
2024/01/15 08:21:19;;;;;;;10.18;4.32;;;-0.20;99.90;;;;;;5004360;28;20269;-82
2024/01/15 08:23:44;;;;;;;5.23;2.27;;;-0.20;99.90;;;;;;4990587;28;20189;-81
2024/01/15 08:26:10;;;;;;;1.00;0.90;;;-0.20;99.90;;;;;;4993492;28;20547;-83
2024/01/15 08:28:36;;;;;;;3.22;1.42;;;-0.20;99.90;;;;;;5005387;28;20669;-83
2024/01/15 08:31:02;;;;;;;4.73;1.80;;;-0.30;99.90;;;;;;4988285;28;20214;-80
2024/01/15 08:33:28;;;;;;;3.60;2.22;;;-0.20;99.90;;;;;;5021204;28;20256;-83
2024/01/15 08:35:54;;;;;;;5.40;2.40;;;-0.20;99.90;;;;;;4992959;28;20189;-81
2024/01/15 08:38:20;;;;;;;7.93;2.63;;;-0.10;99.90;;;;;;4996118;28;20527;-85
2024/01/15 08:40:45;;;;;;;11.93;2.13;;;-0.10;99.90;;;;;;4999591;28;20206;-84
2024/01/15 08:43:11;;;;;;;7.33;2.93;;;-0.10;99.90;;;;;;5011771;28;20831;-82
2024/01/15 08:45:36;;;;;;;10.37;4.03;;;-0.10;99.90;;;;;;5005171;28;20191;-81
2024/01/15 08:48:02;;;;;;;2.37;1.50;;;0.00;99.90;;;;;;4998048;28;20466;-80
2024/01/15 08:50:28;;;;;;;7.93;3.57;;;0.00;99.90;;;;;;4999443;28;20210;-81
2024/01/15 08:52:54;;;;;;;1.20;1.13;;;0.00;99.90;;;;;;5005169;28;20194;-83
2024/01/15 09:37:42;;;;;;;7.35;2.40;;;1.00;99.90;;;;;;5094414;27;20580;-86
2024/01/15 09:40:11;;;;;;;4.18;3.78;;;1.00;99.90;;;;;;5062425;28;20183;-83
2024/01/15 09:42:37;;;;;;;8.25;2.78;;;1.00;99.90;;;;;;5065558;28;20187;-83
2024/01/15 09:45:03;;;;;;;2.17;2.00;;;;;;;;;;5085404;28;20496;-84
2024/01/15 09:47:29;;;;;;;4.47;2.55;;;0.90;99.90;;;;;;5085644;28;20196;-83
2024/01/15 09:49:57;;;;;;;10.65;3.55;;;0.70;99.90;;;;;;5069367;28;20184;-82
2024/01/15 09:52:24;;;;;;;5.10;3.10;;;0.70;99.90;;;;;;5086707;28;20168;-83
2024/01/15 09:54:50;;;;;;;5.78;1.60;;;0.80;99.90;;;;;;5084943;28;20233;-83
2024/01/15 09:57:16;;;;;;;3.67;2.25;;;0.70;99.90;;;;;;5067372;28;20198;-83
2024/01/15 09:59:43;;;;;;;5.07;2.33;;;0.70;99.90;;;;;;5083028;28;20204;-83
2024/01/15 10:02:14;;;;;;;7.65;3.25;;;0.60;99.90;;;;;;5064423;28;21394;-83
2024/01/15 10:04:39;;;;;;;8.98;4.38;;;0.60;99.90;;;;;;5067970;28;20183;-83
2024/01/15 10:07:07;;;;;;;14.30;2.97;;;0.50;99.90;;;;;;5070115;28;20216;-83
2024/01/15 10:09:33;;;;;;;7.97;1.60;;;0.50;99.90;;;;;;5082533;28;20208;-83
2024/01/15 10:11:59;;;;;;;11.90;3.60;;;0.60;99.90;;;;;;5086983;28;20214;-83
2024/01/15 10:14:25;;;;;;;8.20;2.67;;;0.80;99.90;;;;;;5067481;28;20187;-83
2024/01/15 10:16:50;;;;;;;2.77;1.97;;;0.70;99.90;;;;;;5069013;28;20796;-84
2024/01/15 10:19:16;;;;;;;2.70;1.50;;;0.70;99.90;;;;;;5083013;28;20187;-84
2024/01/15 10:21:41;;;;;;;3.80;2.20;;;0.70;99.90;;;;;;5086111;28;20196;-84
2024/01/15 10:24:07;;;;;;;2.70;2.00;;;0.80;99.90;;;;;;5081676;28;20663;-84
2024/01/15 10:26:33;;;;;;;2.22;1.40;;;0.60;99.90;;;;;;5066250;28;20224;-84
2024/01/15 10:29:00;;;;;;;6.13;1.95;;;0.60;99.90;;;;;;5083622;28;20703;-84
2024/01/15 10:31:26;;;;;;;3.42;1.83;;;0.70;99.90;;;;;;5068743;28;20571;-83
2024/01/15 10:33:52;;;;;;;1.95;1.67;;;0.70;99.90;;;;;;5069781;28;20187;-84
2024/01/15 10:36:18;;;;;;;2.70;1.63;;;0.70;99.90;;;;;;5082698;28;20195;-84
2024/01/15 10:38:44;;;;;;;2.83;2.30;;;0.70;99.90;;;;;;5054426;28;20849;-84
2024/01/15 10:41:10;;;;;;;4.78;2.00;;;0.90;99.90;;;;;;5070893;28;20199;-84
2024/01/15 10:43:35;;;;;;;3.20;1.87;;;1.00;99.90;;;;;;5070557;28;20176;-84
2024/01/15 10:46:02;;;;;;;4.97;2.40;;;0.90;99.90;;;;;;5069679;28;20490;-84
2024/01/15 10:48:30;;;;;;;5.68;2.65;;;0.90;99.90;;;;;;5071610;28;20279;-84
2024/01/15 10:50:56;;;;;;;8.05;2.47;;;0.60;99.90;;;;;;5070251;28;20169;-84
2024/01/15 10:53:22;;;;;;;4.05;3.65;;;0.60;99.90;;;;;;5059825;28;20191;-85
2024/01/15 10:55:50;;;;;;;7.57;3.40;;;0.30;99.90;;;;;;5068541;28;20193;-85
2024/01/15 10:58:17;;;;;;;3.65;1.83;;;0.30;99.90;;;;;;5070573;28;20200;-85
2024/01/15 11:00:43;;;;;;;2.72;2.08;;;0.20;99.90;;;;;;5071781;28;20176;-85
2024/01/15 11:03:09;;;;;;;2.28;1.95;;;0.20;99.90;;;;;;5073040;28;20192;-85
2024/01/15 11:05:44;;;;;;;1.55;1.42;;;0.20;99.90;;;;;;5071309;28;20217;-85
2024/01/15 11:08:13;;;;;;;4.22;1.42;;;0.20;99.90;;;;;;5053748;28;20207;-84
2024/01/15 11:10:49;;;;;;;2.08;1.98;;;0.20;99.90;;;;;;5074514;28;20435;-84
2024/01/15 11:13:33;;;;;;;8.77;3.15;;;0.30;99.90;;;;;;5060899;28;20712;-85
2024/01/15 11:16:12;;;;;;;3.13;2.45;;;0.40;99.90;;;;;;5056853;28;20207;-85
2024/01/15 11:18:43;;;;;;;13.50;2.65;;;0.30;99.90;;;;;;5070444;28;20208;-85
2024/01/15 11:21:15;;;;;;;3.80;1.58;;;0.30;99.90;;;;;;5051702;28;20230;-85
2024/01/15 11:23:48;;;;;;;3.88;1.52;;;0.30;99.90;;;;;;5069954;28;20397;-85
2024/01/15 11:26:36;;;;;;;4.30;1.88;;;0.30;99.90;;;;;;5066442;28;20218;-85
2024/01/15 11:29:03;;;;;;;4.32;2.28;;;0.40;99.90;;;;;;5055273;28;20256;-85
2024/01/15 11:31:49;;;;;;;1.58;1.48;;;0.30;99.90;;;;;;5070333;28;20189;-85
2024/01/15 11:34:15;;;;;;;1.45;1.33;;;0.30;99.90;;;;;;5071092;28;20571;-86
2024/01/15 11:36:49;;;;;;;1.90;1.70;;;0.30;99.90;;;;;;5056916;28;20227;-85
2024/01/15 11:39:27;;;;;;;7.50;1.45;;;0.30;99.90;;;;;;5069890;28;20743;-86
2024/01/15 11:41:57;;;;;;;4.63;3.08;;;0.30;99.90;;;;;;5053372;28;20660;-85
2024/01/15 11:44:23;;;;;;;2.38;1.17;;;0.40;99.90;;;;;;5053645;28;20188;-86
2024/01/15 11:47:05;;;;;;;4.30;1.73;;;0.40;99.90;;;;;;5051331;28;20219;-85
2024/01/15 11:49:58;;;;;;;1.60;1.10;;;0.40;99.90;;;;;;5050031;28;20184;-85
2024/01/15 11:52:25;;;;;;;2.53;2.03;;;0.40;99.90;;;;;;5042672;28;20536;-85
2024/01/15 11:55:03;;;;;;;1.08;1.00;;;0.30;99.90;;;;;;5067684;28;20200;-86
2024/01/15 11:57:49;;;;;;;2.47;2.28;;;0.30;99.90;;;;;;5049985;28;20731;-86
2024/01/15 12:00:15;;;;;;;2.72;1.17;;;0.30;99.90;;;;;;5063728;28;20180;-86
2024/01/15 12:02:45;;;;;;;7.78;1.40;;;0.30;99.90;;;;;;5065695;28;20177;-86
2024/01/15 12:05:13;;;;;;;3.83;1.70;;;0.30;99.90;;;;;;5050483;28;20180;-87
2024/01/15 12:07:43;;;;;;;9.43;2.25;;;0.30;99.90;;;;;;5046549;28;20200;-86
2024/01/15 12:10:18;;;;;;;1.25;0.73;;;0.30;99.90;;;;;;5051892;28;20196;-86
2024/01/15 12:13:09;;;;;;;0.75;0.45;;;0.20;99.90;;;;;;5067134;28;20183;-86
2024/01/15 12:15:35;;;;;;;9.68;2.03;;;0.10;99.90;;;;;;5054237;28;20180;-86
2024/01/15 12:18:02;;;;;;;2.93;1.37;;;0.10;99.90;;;;;;5053842;28;20208;-86
2024/01/15 12:20:28;;;;;;;6.25;3.08;;;0.10;99.90;;;;;;5050769;28;20191;-86
2024/01/15 12:22:57;;;;;;;2.00;1.73;;;0.10;99.90;;;;;;5052581;28;20180;-86
2024/01/15 12:25:24;;;;;;;5.97;1.98;;;0.10;99.90;;;;;;5054649;28;20220;-87
2024/01/15 12:27:50;;;;;;;2.60;1.60;;;0.20;99.90;;;;;;5071178;28;20276;-87
2024/01/15 12:30:16;;;;;;;3.20;1.88;;;0.20;99.90;;;;;;5050529;28;20417;-86
2024/01/15 12:32:42;;;;;;;1.43;0.73;;;0.80;99.90;;;;;;5060772;28;20275;-86
2024/01/15 12:35:08;;;;;;;3.58;1.85;;;0.20;99.90;;;;;;5065535;28;20377;-86
2024/01/15 12:37:38;;;;;;;1.88;1.10;;;0.30;99.90;;;;;;5043277;28;20300;-87
2024/01/15 12:40:06;;;;;;;6.20;2.45;;;0.30;99.90;;;;;;5051687;28;20588;-87
2024/01/15 12:42:33;;;;;;;1.20;1.10;;;0.30;99.90;;;;;;5066428;28;20258;-86
2024/01/15 12:44:59;;;;;;;2.72;1.65;;;0.30;99.90;;;;;;5049678;28;20570;-87
2024/01/15 12:47:25;;;;;;;7.00;2.13;;;0.30;99.90;;;;;;5051145;28;20203;-87
2024/01/15 12:49:54;;;;;;;3.22;1.70;;;0.30;99.90;;;;;;5071191;28;20176;-87
2024/01/15 12:52:21;;;;;;;1.08;1.00;;;0.40;99.90;;;;;;5069112;28;20188;-86
2024/01/15 12:54:48;;;;;;;2.88;2.60;;;0.30;99.90;;;;;;5053474;28;20173;-87
2024/01/15 12:57:13;;;;;;;3.22;2.38;;;0.30;99.90;;;;;;5065203;28;20578;-87
2024/01/15 12:59:39;;;;;;;1.80;1.43;;;0.30;99.90;;;;;;5070000;28;20183;-87
2024/01/15 13:02:05;;;;;;;1.40;1.23;;;0.30;99.90;;;;;;5051483;28;20203;-87
2024/01/15 13:04:31;;;;;;;1.80;1.15;;;0.30;99.90;;;;;;5052397;28;20182;-87
2024/01/15 13:06:57;;;;;;;1.57;1.03;;;0.20;99.90;;;;;;5054070;28;20264;-86
2024/01/15 13:09:22;;;;;;;5.97;2.15;;;0.20;99.90;;;;;;5073151;28;20271;-87
2024/01/15 13:11:48;;;;;;;8.90;1.80;;;0.20;99.90;;;;;;5053145;28;20211;-86
2024/01/15 13:14:13;;;;;;;3.00;2.17;;;0.20;99.90;;;;;;5071459;28;20686;-87
2024/01/15 13:16:42;;;;;;;3.07;1.60;;;0.30;99.90;;;;;;5072867;28;20189;-86
2024/01/15 13:19:09;;;;;;;2.05;1.73;;;0.30;99.90;;;;;;5048881;28;20189;-86
2024/01/15 13:21:34;;;;;;;1.02;0.73;;;0.40;99.90;;;;;;5053858;28;20181;-87
2024/01/15 13:24:00;;;;;;;7.27;2.17;;;0.50;99.90;;;;;;5065175;28;20195;-86
2024/01/15 13:26:26;;;;;;;1.70;1.60;;;0.50;99.90;;;;;;5057952;28;20209;-89
2024/01/15 13:28:53;;;;;;;5.03;1.53;;;0.50;99.90;;;;;;5049580;28;20601;-90
2024/01/15 13:31:18;;;;;;;4.13;1.08;;;2.10;99.90;;;;;;5069411;28;20230;-86
2024/01/15 13:33:44;;;;;;;2.27;1.40;;;;;;;;;;5071590;28;20189;-87
2024/01/15 13:36:10;;;;;;;2.03;1.93;;;0.50;99.90;;;;;;5068461;28;20206;-88
2024/01/15 13:38:37;;;;;;;6.07;1.97;;;1.40;99.90;;;;;;5070693;28;20518;-87
2024/01/15 13:41:04;;;;;;;5.40;2.15;;;1.30;99.90;;;;;;5054618;28;20164;-86
2024/01/15 13:43:32;;;;;;;1.27;1.17;;;0.40;99.90;;;;;;5082365;28;20204;-86
2024/01/15 13:45:58;;;;;;;6.70;2.45;;;0.40;99.90;;;;;;5056822;28;20224;-89
2024/01/15 13:48:23;;;;;;;3.63;3.20;;;0.40;99.90;;;;;;5061892;28;20203;-88
2024/01/15 13:50:50;;;;;;;0.77;0.70;;;0.40;99.90;;;;;;5066762;28;20180;-87
2024/01/15 13:53:16;;;;;;;5.68;2.78;;;;;;;;;;5055903;28;20177;-88
2024/01/15 13:55:45;;;;;;;6.22;2.78;;;0.40;99.90;;;;;;5068008;28;20205;-88
2024/01/15 13:58:11;;;;;;;6.75;3.08;;;0.40;99.90;;;;;;5070648;28;20193;-87
2024/01/15 14:00:36;;;;;;;4.10;2.10;;;0.50;99.90;;;;;;5078869;28;20184;-89
2024/01/15 14:03:03;;;;;;;2.80;2.40;;;;;;;;;;5059673;28;20180;-88
2024/01/15 14:05:28;;;;;;;5.32;2.40;;;0.40;99.90;;;;;;5057794;28;20207;-87
2024/01/15 14:07:55;;;;;;;1.73;1.63;;;;;;;;;;5052260;28;20204;-87
2024/01/15 14:10:20;;;;;;;13.40;4.63;;;0.30;99.90;;;;;;5047921;28;20227;-87
2024/01/15 14:12:46;;;;;;;6.30;2.50;;;;;;;;;;5061990;28;20176;-86
2024/01/15 14:15:12;;;;;;;1.43;1.33;;;;;;;;;;5052677;28;20176;-87
2024/01/15 14:17:38;;;;;;;1.50;1.40;;;0.30;99.90;;;;;;5067614;28;20450;-86
2024/01/15 14:20:05;;;;;;;8.13;2.63;;;0.30;99.90;;;;;;5049716;28;20423;-86
2024/01/15 14:22:31;;;;;;;1.67;1.58;;;0.30;99.90;;;;;;5072241;28;20267;-87
2024/01/15 14:24:56;;;;;;;2.17;1.93;;;;;;;;;;5069185;28;20262;-87
2024/01/15 14:27:22;;;;;;;11.30;2.13;;;0.30;99.90;;;;;;5054346;28;20246;-86
2024/01/15 14:29:48;;;;;;;4.17;2.53;;;0.30;99.90;;;;;;5070014;28;20953;-86
2024/01/15 14:32:14;;;;;;;4.27;2.83;;;0.30;99.90;;;;;;5072948;28;20172;-87
2024/01/15 14:34:39;;;;;;;4.13;3.22;;;0.40;99.90;;;;;;5078903;28;20179;-87
2024/01/15 14:37:06;;;;;;;4.20;2.97;;;;;;;;;;5061976;28;20699;-87
2024/01/15 14:39:34;;;;;;;3.63;2.17;;;0.40;99.90;;;;;;5070453;28;20176;-86
2024/01/15 14:42:00;;;;;;;0.90;0.82;;;0.40;99.90;;;;;;5069268;28;20188;-86
2024/01/15 14:44:25;;;;;;;6.10;2.45;;;0.30;99.90;;;;;;5074052;28;20236;-86
2024/01/15 14:46:51;;;;;;;3.77;1.50;;;0.40;99.90;;;;;;5057903;28;20200;-86
2024/01/15 14:49:18;;;;;;;1.03;0.93;;;0.90;99.90;;;;;;5068755;28;20172;-85
2024/01/15 14:51:44;;;;;;;2.22;2.03;;;0.40;99.90;;;;;;5073592;28;20895;-86
2024/01/15 14:54:10;;;;;;;2.35;1.42;;;0.40;99.90;;;;;;5069575;28;20645;-86
2024/01/15 14:56:36;;;;;;;3.17;2.25;;;0.50;99.90;;;;;;5071704;28;20250;-86
2024/01/15 14:59:02;;;;;;;6.83;3.03;;;;;;;;;;5068891;28;20724;-86
2024/01/15 15:01:28;;;;;;;2.55;1.73;;;0.50;99.90;;;;;;5073194;28;20184;-88
2024/01/15 15:03:53;;;;;;;5.00;2.10;;;0.40;99.90;;;;;;5061781;28;20218;-88
2024/01/15 15:06:20;;;;;;;2.40;1.90;;;0.40;99.90;;;;;;5069300;28;20651;-87
2024/01/15 15:08:46;;;;;;;2.22;2.03;;;0.90;99.90;;;;;;5072018;28;20221;-86
2024/01/15 15:11:12;;;;;;;4.47;3.70;;;0.30;99.90;;;;;;5057731;28;20185;-86
2024/01/15 15:13:38;;;;;;;11.87;2.10;;;;;;;;;;5060538;28;20237;-88
2024/01/15 15:16:03;;;;;;;2.60;1.50;;;0.30;99.90;;;;;;5057553;28;20195;-87
2024/01/15 15:18:30;;;;;;;7.83;1.93;;;0.20;99.90;;;;;;5049294;28;20833;-87
2024/01/15 15:20:55;;;;;;;2.40;1.60;;;0.20;99.90;;;;;;5054367;28;20636;-87
2024/01/15 15:23:21;;;;;;;6.60;4.40;;;0.20;99.90;;;;;;5068608;28;20184;-87
2024/01/15 15:25:47;;;;;;;7.97;3.47;;;0.20;99.90;;;;;;5066682;28;20196;-86
2024/01/15 15:28:16;;;;;;;2.60;1.43;;;0.10;99.90;;;;;;5069994;28;20204;-87
2024/01/15 15:30:41;;;;;;;4.30;2.95;;;0.00;99.90;;;;;;5049616;28;20615;-87
2024/01/15 15:33:07;;;;;;;6.87;3.53;;;;;;;;;;5054060;28;20558;-86
2024/01/15 15:35:33;;;;;;;4.40;2.47;;;0.10;99.90;;;;;;5050985;28;20181;-85
2024/01/15 15:37:58;;;;;;;1.97;1.70;;;0.10;99.90;;;;;;5069480;28;20489;-85
2024/01/15 15:42:52;;;;;;;3.72;2.42;;;0.00;99.90;;;;;;5017140;28;20453;-83
2024/01/15 15:45:17;;;;;;;1.93;1.60;;;0.00;99.90;;;;;;4999508;28;20861;-83
2024/01/15 15:47:43;;;;;;;1.73;0.90;;;0.00;99.90;;;;;;5000090;28;20352;-81
2024/01/15 15:50:09;;;;;;;6.53;3.37;;;0.00;99.90;;;;;;5001806;28;20196;-82
2024/01/15 15:52:34;;;;;;;4.20;2.60;;;-0.10;99.90;;;;;;5013240;28;20217;-79
2024/01/15 15:55:00;;;;;;;4.70;4.07;;;-0.20;99.90;;;;;;4985676;28;20205;-81
2024/01/15 15:57:26;;;;;;;8.60;3.37;;;-0.10;99.90;;;;;;5005363;28;20496;-82
2024/01/15 15:59:54;;;;;;;2.80;2.35;;;-0.10;99.90;;;;;;4996374;28;20195;-82
2024/01/15 16:02:20;;;;;;;1.85;1.42;;;-0.20;99.90;;;;;;5015911;28;20292;-82
2024/01/15 16:04:45;;;;;;;5.25;2.55;;;-0.30;99.90;;;;;;5013597;28;20217;-83
2024/01/15 16:07:11;;;;;;;6.27;3.20;;;-0.30;99.90;;;;;;4994928;28;20214;-83
2024/01/15 16:09:37;;;;;;;2.85;1.30;;;-0.30;99.90;;;;;;5013235;28;20431;-84
2024/01/15 16:12:03;;;;;;;7.97;4.70;;;-0.30;99.90;;;;;;5010559;28;20210;-83
2024/01/15 16:14:28;;;;;;;7.20;4.13;;;-0.30;99.90;;;;;;5007355;28;20787;-84
2024/01/15 16:16:57;;;;;;;4.10;3.80;;;-0.30;99.90;;;;;;5008204;28;20244;-81
2024/01/15 16:19:26;;;;;;;3.15;1.67;;;-0.30;99.90;;;;;;5008294;28;20284;-82
2024/01/15 16:21:55;;;;;;;9.88;5.82;;;-0.40;99.90;;;;;;4983372;28;20210;-79
2024/01/15 16:24:23;;;;;;;5.03;2.42;;;-0.40;99.90;;;;;;5013874;28;20832;-83
2024/01/15 16:26:48;;;;;;;5.32;3.80;;;-0.50;99.90;;;;;;4991916;28;20210;-82
2024/01/15 16:29:14;;;;;;;5.67;1.53;;;-0.40;99.90;;;;;;5008455;28;20197;-81
2024/01/15 16:31:39;;;;;;;2.80;2.00;;;-0.40;99.90;;;;;;4987907;28;20202;-80
2024/01/15 16:34:06;;;;;;;1.77;1.67;;;-0.40;99.90;;;;;;5010265;28;20186;-82
2024/01/15 16:36:32;;;;;;;5.15;2.40;;;-0.50;99.90;;;;;;5010366;28;20257;-83
2024/01/15 16:38:58;;;;;;;10.80;1.83;;;-0.50;99.90;;;;;;5013956;28;20190;-82
2024/01/15 16:41:23;;;;;;;6.17;3.77;;;-0.60;99.90;;;;;;5013973;28;20220;-81
2024/01/15 16:43:49;;;;;;;2.07;1.83;;;-0.60;99.90;;;;;;4997477;28;20225;-81
2024/01/15 16:46:14;;;;;;;2.53;1.80;;;-0.60;99.90;;;;;;4995884;28;20827;-84
2024/01/15 16:48:40;;;;;;;3.70;2.17;;;-0.70;99.90;;;;;;4994524;28;20178;-82
2024/01/15 16:51:05;;;;;;;12.53;2.60;;;-0.70;99.90;;;;;;4988205;28;20234;-81
2024/01/15 16:53:31;;;;;;;8.03;3.40;;;-0.70;99.90;;;;;;5009042;28;20229;-82
2024/01/15 16:55:57;;;;;;;4.87;2.43;;;-0.80;99.90;;;;;;5010717;28;20230;-80
2024/01/15 16:58:23;;;;;;;2.83;1.70;;;-0.80;99.90;;;;;;5010943;28;20507;-83
2024/01/15 17:00:48;;;;;;;4.37;1.37;;;-0.70;99.90;;;;;;4984782;28;20209;-83
2024/01/15 17:03:14;;;;;;;3.80;1.60;;;-0.80;99.90;;;;;;5009271;28;20198;-81
2024/01/15 17:05:40;;;;;;;4.13;2.60;;;-0.80;99.90;;;;;;5009377;28;20718;-80
2024/01/15 17:08:06;;;;;;;3.93;2.57;;;-0.80;99.90;;;;;;5008992;28;20194;-80
2024/01/15 17:10:33;;;;;;;9.48;4.38;;;-0.60;99.90;;;;;;4989301;28;20442;-80
2024/01/15 17:13:03;;;;;;;7.15;4.53;;;-0.50;99.90;;;;;;4994261;28;20439;-81
2024/01/15 17:15:30;;;;;;;3.30;3.00;;;-0.50;99.90;;;;;;5009512;28;20183;-83
2024/01/15 17:17:56;;;;;;;2.67;1.90;;;-0.50;99.90;;;;;;5003309;28;20569;-83
2024/01/15 17:20:21;;;;;;;4.63;2.97;;;-0.50;99.90;;;;;;4990182;28;20186;-80
2024/01/15 17:22:47;;;;;;;1.67;1.57;;;-0.50;99.90;;;;;;5008924;28;20217;-83
2024/01/15 17:25:13;;;;;;;1.80;1.70;;;-0.50;99.90;;;;;;4991511;28;20190;-79
2024/01/15 17:27:38;;;;;;;2.17;1.83;;;-0.50;99.90;;;;;;4986613;28;20241;-82
2024/01/15 17:30:07;;;;;;;1.00;0.90;;;-0.50;99.90;;;;;;5007194;28;20197;-81
2024/01/15 17:32:35;;;;;;;4.63;2.63;;;-0.50;99.90;;;;;;4994051;28;21558;-80
2024/01/15 17:35:01;;;;;;;1.35;1.25;;;-0.50;99.90;;;;;;4990094;28;20225;-81
2024/01/15 17:37:27;;;;;;;2.95;2.03;;;-0.40;99.90;;;;;;5006996;28;20193;-82
2024/01/15 17:39:53;;;;;;;2.60;1.60;;;-0.40;99.90;;;;;;5006566;28;20546;-81
2024/01/15 17:42:18;;;;;;;6.47;2.67;;;-0.40;99.90;;;;;;5005476;28;20296;-84
2024/01/15 17:44:44;;;;;;;3.10;2.80;;;-0.50;99.90;;;;;;5005293;28;20795;-81
2024/01/15 17:47:10;;;;;;;1.53;1.43;;;-0.50;99.90;;;;;;4987185;28;20465;-84
2024/01/15 17:49:36;;;;;;;8.93;3.50;;;-0.60;99.90;;;;;;5010235;28;20491;-81
2024/01/15 17:52:02;;;;;;;7.37;2.30;;;-0.60;99.90;;;;;;4988577;28;20204;-80
2024/01/15 17:54:29;;;;;;;6.30;2.40;;;-0.60;99.90;;;;;;4992994;28;20441;-82
2024/01/15 17:56:55;;;;;;;1.48;1.35;;;-0.70;99.90;;;;;;5008028;28;20438;-78
2024/01/15 17:59:20;;;;;;;3.83;3.57;;;-0.70;99.90;;;;;;4994813;28;20194;-80
2024/01/15 18:01:46;;;;;;;8.03;3.53;;;-0.50;99.90;;;;;;4989611;28;20682;-83
2024/01/15 18:04:12;;;;;;;9.68;2.63;;;-0.40;99.90;;;;;;4990155;28;20186;-81
2024/01/15 18:06:38;;;;;;;3.37;1.83;;;-0.50;99.90;;;;;;5005783;28;20225;-80
2024/01/15 18:09:04;;;;;;;5.53;4.93;;;-0.40;99.90;;;;;;4985180;28;20441;-82
2024/01/15 18:11:30;;;;;;;5.63;2.20;;;-0.40;99.90;;;;;;5013158;28;20201;-83
2024/01/15 18:13:55;;;;;;;6.25;3.15;;;-0.40;99.90;;;;;;5011586;28;20441;-81
2024/01/15 18:16:24;;;;;;;5.10;2.60;;;-0.20;99.90;;;;;;4989808;28;20483;-82
2024/01/15 18:18:51;;;;;;;2.92;2.72;;;-0.30;99.90;;;;;;5007414;28;20202;-82
2024/01/15 18:21:23;;;;;;;4.25;3.80;;;-0.30;99.90;;;;;;4998985;28;20228;-82
2024/01/15 18:23:49;;;;;;;0.57;0.57;;;-0.20;99.90;;;;;;5004819;28;20201;-80
2024/01/15 18:26:18;;;;;;;1.43;1.33;;;-0.30;99.90;;;;;;4988253;28;20206;-82
2024/01/15 18:28:43;;;;;;;7.80;2.47;;;-0.30;99.90;;;;;;5009300;28;20309;-81
2024/01/15 18:31:10;;;;;;;3.67;2.07;;;-0.30;99.90;;;;;;5008972;28;20805;-81
2024/01/15 18:33:37;;;;;;;3.75;2.33;;;-0.50;99.90;;;;;;4988003;28;21046;-81
2024/01/15 18:36:04;;;;;;;8.20;3.95;;;-0.40;99.90;;;;;;5004633;28;20182;-77
2024/01/15 18:38:33;;;;;;;4.88;2.40;;;-0.40;99.90;;;;;;5008015;28;20309;-82
2024/01/15 18:40:59;;;;;;;1.88;1.20;;;-0.40;99.90;;;;;;4986844;28;20210;-79
2024/01/15 18:43:25;;;;;;;2.10;1.05;;;-0.40;99.90;;;;;;4975736;28;20194;-79
2024/01/15 18:45:50;;;;;;;8.82;2.72;;;-0.30;99.90;;;;;;5007949;28;20435;-79
2024/01/15 18:48:17;;;;;;;5.27;1.90;;;-0.20;99.90;;;;;;5012390;28;20213;-79
2024/01/15 18:50:43;;;;;;;2.30;2.08;;;-0.20;99.90;;;;;;5007663;28;20207;-81
2024/01/15 18:53:08;;;;;;;2.63;1.92;;;-0.20;99.90;;;;;;4995196;28;20190;-79
2024/01/15 18:55:34;;;;;;;1.80;1.53;;;-0.20;99.90;;;;;;4992550;28;20204;-81
2024/01/15 18:58:00;;;;;;;3.13;1.50;;;-0.20;99.90;;;;;;4989225;28;20196;-82
2024/01/15 19:00:25;;;;;;;2.50;2.30;;;-0.10;99.90;;;;;;5010646;28;20923;-82
2024/01/15 19:02:57;;;;;;;4.40;1.37;;;-0.10;99.90;;;;;;4993435;28;20183;-81
2024/01/15 19:05:22;;;;;;;1.38;1.27;;;-0.10;99.90;;;;;;5011945;28;20221;-80
2024/01/15 19:07:48;;;;;;;1.37;1.27;;;-0.20;99.90;;;;;;5010893;28;20717;-83
2024/01/15 19:10:13;;;;;;;1.27;1.23;;;-0.10;99.90;;;;;;5011345;28;20186;-83
2024/01/15 19:12:39;;;;;;;1.67;1.57;;;-0.10;99.90;;;;;;5008872;28;20233;-81
2024/01/15 19:15:05;;;;;;;2.60;1.77;;;-0.10;99.90;;;;;;5012825;28;20193;-85
2024/01/15 19:17:31;;;;;;;1.25;1.15;;;-0.10;99.90;;;;;;5013217;28;20201;-83
2024/01/15 19:19:56;;;;;;;0.60;0.60;;;-0.10;99.90;;;;;;5016182;28;20187;-83
2024/01/15 19:22:22;;;;;;;1.30;1.20;;;-0.10;99.90;;;;;;5017059;28;20209;-81
2024/01/15 19:24:47;;;;;;;1.30;1.20;;;-0.10;99.90;;;;;;5018766;28;20202;-83